Régionale MD - CL n°6 Val Joly (59) - C

Date : 09/04/2011
Distance : 3,300 km

Place Nom Licence Catégorie Club Temps min/km CN à J-60 Points Différence Nouveau CN
1 GROSSI Kurtys 22925 H14 5907NO 0:25:07 7'36 3986 4458 +472 4163
2 LALOUX Clément 22447 H16 5907NO 0:25:53 7'50 3106 4326 +1220 3482
3 RADONDY Théo 22370 H14 5907NO 0:29:10 8'50 3166 3839 +673 3665
4 RUDKIEWICZ Martin 18542 H16 5906NO 0:29:39 8'59 3517 3777 +260 3811
5 MALAK Nathan 22433 H16 5907NO 0:29:57 9'04 3110 3739 +629 3505
6 BAILLIEUL Martin 22717 H16 5906NO 0:30:40 9'17 3124 3651 +527 3321
7 LOUCHART Victor 20952 H16 5906NO 0:30:47 9'19 3636 3637 +1 3818
8 HENEMAN Maxence 22511 H16 6208NO 0:31:41 9'36 3947 3534 -413 3947
9 DELCUSE Sébastien 22373 H16 6205NO 0:31:43 9'36 3693 3530 -163 3936
10 VERCAUTEREN M-Claude 16229 D40 6008PI 0:32:05 9'43 3838 3490 -348 3821
11 BULLIER Romain 22157 H14 0207PI 0:32:38 9'53 2934 3431 +497 3087
12 CAMAS Mandye 19238 D16 5907NO 0:33:46 10'13 3842 3316 -526 3774
13 ROUX Catherine 13270 D40 6205NO 0:33:58 10'17 4015 3297 -718 4084
14 HUMBERTCLAUDE J-Paul 16205 H60 5909NO 0:34:01 10'18 3981 3292 -689 4207
15 PONCHEL Valentin 23539 H14 6205NO 0:34:30 10'27 1949 3246 +1297 2919
16 MINET Constance 23608 D14 6208NO 0:34:31 10'27 1882 3244 +1362 3014
17 ROSE Jean-Bernard 6740 H60 0801CA 0:35:38 10'47 2832 3142 +310 3186
18 LARGILLÈRE Nicolas 18213 H14 0207PI 0:35:49 10'51 3181 3126 -55 3186
19 CLAVEL Matéo 22804 H16 5907NO 0:37:28 11'21 2355 2989 +634 2750
20 VERCAUTEREN Thomas 16226 H16 6008PI 0:37:55 11'29 4286 2953 -1333 4286
21 ROSINI Veronique 989 D50 0801CA 0:38:45 11'44 3627 2890 -737 3179
22 DUQUENNE Audrey 23885 D16 5907NO 0:38:47 11'45 0 2887 2719
23 GOURLAIN Mathilde 18299 D16 6205NO 0:39:36 12'00 3593 2828 -765 3721
24 LOTERIE Murielle 7044 D40 5907NO 0:40:17 12'12 3992 2780 -1212 4096
25 GRESSIER Theo 22512 H16 6208NO 0:40:18 12'12 2689 2779 +90 2800
26 POULAIN Gael 9172 H14 5908NO 0:41:50 12'40 2923 2677 -246 3184
27 ROSE Marie-Thérèse 7744 D55 0801CA 0:41:50 12'40 2224 2677 +453 2327
28 VERCAUTEREN Antoine 16228 H14 6008PI 0:41:53 12'41 3901 2673 -1228 3899
29 GUILMAIN Melanie 20572 D16 6208NO 0:42:11 12'46 3786 2654 -1132 3956
30 VANOVERBERGHE Nathalie 22237 D40 6208NO 0:42:49 12'58 2739 2615 -124 2833
31 GRESSIER Francis 23437 H14 6208NO 0:43:46 13'15 1802 2558 +756 2393
32 LECUYER Manon 22549 D14 5907NO 0:44:04 13'21 1718 2541 +823 2481
33 LECOEUCHE Charlotte 22216 D16 5906NO 0:45:01 13'38 1791 2487 +696 2149
34 NOEL Annie 23019 D40 6207NO 0:45:29 13'46 0 2462 2413
35 LOUCHART Auguste 23662 H14 5906NO 0:46:32 14'06 1629 2406 +777 1931
36 GOURLAIN Marguerite-marie 19155 D40 6205NO 0:46:32 14'06 2898 2406 -492 2968
37 BOULANGER Isabelle 10639 D50 5907NO 0:47:01 14'14 3335 2382 -953 3414
38 MINET Clémence 23609 D16 6208NO 0:48:04 14'33 1952 2330 +378 2476
39 BERCHE Léa 24420 D16 5907NO 0:48:10 14'35 0 2325 2105
40 GILLET Annabelle 19601 D40 5116CA 0:48:42 14'45 2962 2299 -663 3082
41 MASSIN Margot 22860 D14 5907NO 0:50:07 15'11 2420 2234 -186 2658
42 DELAPORTE Léa 20067 D16 5116CA 0:50:33 15'19 1949 2215 +266 2371
43 HALTZ Louis 24070 H14 5907NO 0:50:36 15'20 1921 2213 +292 2265
44 PONCE Bernard 971 H65 0801CA 0:52:52 16'01 0 2118 2227
45 RICHARD Nicole 14245 D60 0207PI 0:53:49 16'18 3274 2081 -1193 3294
46 DELCUSE Julie 23595 D14 6205NO 0:54:54 16'38 1910 2040 +130 1999
47 LECOYER Annick 2885 D60 0207PI 0:55:35 16'50 2936 2015 -921 2794
48 MANSUEL Quentin 23791 H14 0207PI 0:58:42 17'47 1359 1908 +549 1736
49 PASSEPONT Audrey 22418 D21 6205NO 1:00:17 18'16 2283 1857 -426 2546
50 BULLIER Alisson 23427 D16 0207PI 1:03:34 19'15 2268 1762 -506 2528
51 BELLE Clémence 24444 D14 6205NO 1:03:56 19'22 1751 1881
52 BOUCHEZ Marie-Pascale 24241 D40 6208NO 1:04:52 19'39 0 1726 1988
53 CLAVEL Nathalie 22803 D40 5907NO 1:05:58 19'59 1878 1697 -181 1920
54 HERLEZ Natan 23830 H14 5909NO 1:08:21 20'42 0 1638 1371
55 GOZE Anne 22931 D55 5907NO 1:10:04 21'13 2062 1598 -464 2660
LUDEWIG-JAMES Carol 15894 D70 5907NO pm None 2160 0 2414